Time;durP1;ratioP1;P1;durP2;ratioP2;P2;SDS_P1;SDS_P2;PMS_P1;PMS_P2;Temp;Humidity;BMP_temperature;BMP_pressure;BME280_temperature;BME280_humidity;BME280_pressure;Samples;Min_cycle;Max_cycle;Signal;HPM_P1;HPM_P2
2021/09/23 00:00:04;;;;;;;41.10;20.67;;;;;;;11.33;80.34;102302.03;5055513;28;20039;-35
2021/09/23 00:05:10;;;;;;;42.60;19.50;;;;;;;11.40;79.42;102307.47;5055180;28;20047;-35
2021/09/23 00:07:36;;;;;;;42.97;19.73;;;;;;;11.31;79.39;102303.25;5055123;28;20470;-35
2021/09/23 00:10:01;;;;;;;38.55;19.40;;;;;;;11.31;80.27;102300.53;5054577;28;20036;-35
2021/09/23 00:12:27;;;;;;;36.87;19.63;;;;;;;11.20;79.71;102288.41;5055670;28;20361;-35
2021/09/23 00:14:52;;;;;;;36.17;18.60;;;;;;;11.19;79.29;102291.31;5055293;28;20279;-35
2021/09/23 00:17:17;;;;;;;34.10;17.93;;;;;;;11.08;79.61;102269.19;5055477;28;20052;-35
2021/09/23 00:19:43;;;;;;;41.10;19.83;;;;;;;11.11;80.25;102267.09;5055639;28;20032;-35
2021/09/23 00:22:09;;;;;;;44.60;19.80;;;;;;;11.11;80.58;102264.41;5055935;28;20021;-35
2021/09/23 00:24:34;;;;;;;40.33;19.37;;;;;;;11.23;80.61;102268.22;5054810;28;20048;-35
2021/09/23 00:26:59;;;;;;;37.47;19.50;;;;;;;11.23;80.10;102266.34;5055817;28;20092;-35
2021/09/23 00:29:25;;;;;;;40.53;19.07;;;;;;;11.22;80.65;102275.47;5054983;28;20029;-35
2021/09/23 00:31:50;;;;;;;40.00;20.13;;;;;;;11.27;80.21;102283.88;5055063;28;20343;-35
2021/09/23 00:34:15;;;;;;;45.37;20.93;;;;;;;11.20;80.54;102282.16;5054643;28;20496;-35
2021/09/23 00:36:40;;;;;;;39.97;19.10;;;;;;;11.08;79.43;102266.47;5053556;28;20035;-35
2021/09/23 00:39:06;;;;;;;40.47;19.87;;;;;;;11.06;79.43;102265.81;5054766;28;20369;-35
2021/09/23 00:41:31;;;;;;;37.17;19.50;;;;;;;11.01;80.49;102264.75;5055302;28;20021;-35
2021/09/23 00:43:56;;;;;;;40.13;20.90;;;;;;;11.07;80.29;102264.78;5054500;28;20053;-35
2021/09/23 00:46:22;;;;;;;38.43;21.23;;;;;;;11.01;80.62;102265.59;5054748;28;20110;-35
2021/09/23 00:48:50;;;;;;;44.23;20.37;;;;;;;10.90;80.12;102240.97;5054586;28;20025;-35
2021/09/23 00:51:18;;;;;;;47.20;20.65;;;;;;;10.95;80.82;102263.69;5055032;28;20267;-35
2021/09/23 00:53:44;;;;;;;39.10;20.48;;;;;;;11.01;80.51;102273.72;5054458;28;20036;-35
2021/09/23 00:56:10;;;;;;;34.38;19.00;;;;;;;10.92;77.16;102268.66;5054603;28;20450;-35
2021/09/23 00:58:36;;;;;;;36.90;20.43;;;;;;;10.91;79.05;102264.28;5054294;28;20032;-35
2021/09/23 01:01:01;;;;;;;39.05;21.88;;;;;;;10.92;78.49;102268.66;5055158;28;20024;-35
2021/09/23 01:03:26;;;;;;;43.43;22.33;;;;;;;10.90;81.44;102270.72;5054081;28;20515;-35
2021/09/23 01:05:52;;;;;;;33.67;19.97;;;;;;;10.94;80.14;102269.31;5054271;28;20029;-35
2021/09/23 01:08:17;;;;;;;29.90;19.33;;;;;;;10.89;77.19;102266.38;5054177;28;20033;-35
2021/09/23 01:10:43;;;;;;;31.17;18.47;;;;;;;10.76;77.04;102250.88;5054514;28;20021;-35
2021/09/23 01:13:08;;;;;;;31.13;20.50;;;;;;;10.79;79.71;102256.72;5054210;28;20021;-35
2021/09/23 01:15:33;;;;;;;35.63;21.73;;;;;;;10.92;80.45;102257.81;5054903;28;20043;-35
2021/09/23 01:17:59;;;;;;;36.50;23.10;;;;;;;10.91;80.58;102242.63;5053246;28;20060;-35
2021/09/23 01:20:25;;;;;;;31.90;19.90;;;;;;;10.89;80.83;102237.44;5053749;28;20036;-35
2021/09/23 01:22:50;;;;;;;35.50;22.55;;;;;;;10.88;81.13;102243.84;5054615;28;20056;-35
2021/09/23 01:25:17;;;;;;;35.17;23.13;;;;;;;10.92;81.62;102236.19;5054135;28;20025;-35
2021/09/23 01:27:43;;;;;;;36.15;23.15;;;;;;;10.73;79.83;102233.13;5053849;28;20075;-35
2021/09/23 01:30:09;;;;;;;34.03;22.52;;;;;;;10.75;79.97;102232.97;5053803;28;20420;-35
2021/09/23 01:32:35;;;;;;;;;;;;;;;10.91;78.78;102220.97;5053806;28;20037;-35
2021/09/23 01:35:00;;;;;;;35.30;22.05;;;;;;;10.76;80.14;102210.28;5053726;28;19954;-35
2021/09/23 01:37:26;;;;;;;26.57;17.87;;;;;;;10.64;81.46;102193.78;5054163;28;20021;-35
2021/09/23 01:39:51;;;;;;;39.83;24.02;;;;;;;10.66;81.18;102216.03;5053605;28;20095;-35
2021/09/23 01:42:17;;;;;;;36.15;22.33;;;;;;;10.58;81.22;102191.84;5054040;28;20028;-35
2021/09/23 01:44:42;;;;;;;33.60;22.47;;;;;;;10.62;80.88;102213.94;5052160;28;20056;-35
2021/09/23 01:47:08;;;;;;;32.83;22.80;;;;;;;10.54;79.98;102229.28;5054083;28;20275;-35
2021/09/23 01:49:33;;;;;;;31.65;21.88;;;;;;;10.62;80.59;102219.34;5053707;28;20017;-35
2021/09/23 01:51:59;;;;;;;36.10;24.47;;;;;;;10.49;80.49;102220.06;5053429;28;20055;-35
2021/09/23 01:54:25;;;;;;;38.53;24.42;;;;;;;10.43;80.96;102202.78;5053619;28;20050;-35
2021/09/23 01:56:53;;;;;;;35.28;22.40;;;;;;;10.45;78.84;102210.72;5053805;28;20021;-35
2021/09/23 01:59:21;;;;;;;34.95;22.90;;;;;;;10.46;80.26;102207.78;5053447;28;20025;-35
2021/09/23 02:01:46;;;;;;;33.55;23.20;;;;;;;10.44;81.14;102195.50;5053482;28;20021;-35
2021/09/23 02:04:11;;;;;;;37.70;23.92;;;;;;;10.53;82.00;102188.91;5052830;28;20036;-35
2021/09/23 02:06:37;;;;;;;33.83;23.73;;;;;;;10.56;82.54;102192.03;5053233;28;20028;-35
2021/09/23 02:09:02;;;;;;;34.13;22.40;;;;;;;10.51;82.51;102181.00;5052826;28;20025;-35
2021/09/23 02:11:27;;;;;;;35.17;23.73;;;;;;;10.57;82.15;102179.34;5052674;28;20139;-35
2021/09/23 02:13:53;;;;;;;35.30;24.63;;;;;;;10.56;80.97;102173.13;5053397;28;20112;-35
2021/09/23 02:16:18;;;;;;;37.40;24.63;;;;;;;10.49;81.67;102177.66;5052683;28;20024;-35
2021/09/23 02:18:43;;;;;;;35.60;24.97;;;;;;;10.64;82.94;102168.56;5053440;28;20135;-35
2021/09/23 02:21:09;;;;;;;36.87;25.00;;;;;;;10.62;81.72;102173.34;5053227;28;20302;-35
2021/09/23 02:23:34;;;;;;;34.53;23.85;;;;;;;10.63;82.19;102169.59;5053216;28;20083;-35
2021/09/23 02:26:00;;;;;;;36.87;23.60;;;;;;;10.66;83.17;102155.69;5051864;28;20128;-35
2021/09/23 02:28:25;;;;;;;34.20;24.17;;;;;;;10.74;82.96;102152.84;5052674;28;20405;-35
2021/09/23 02:30:52;;;;;;;34.27;22.63;;;;;;;10.71;81.82;102158.63;5051862;28;20338;-35
2021/09/23 02:33:17;;;;;;;32.92;23.02;;;;;;;10.60;82.70;102151.09;5052821;28;20043;-35
2021/09/23 02:35:42;;;;;;;35.23;25.03;;;;;;;10.80;82.55;102165.56;5052981;28;20107;-35
2021/09/23 02:38:08;;;;;;;29.73;22.33;;;;;;;10.50;81.44;102144.16;5052563;28;20032;-35
2021/09/23 02:40:33;;;;;;;32.77;22.60;;;;;;;10.76;83.28;102167.00;5053104;28;20060;-35
2021/09/23 02:42:58;;;;;;;33.22;22.35;;;;;;;10.66;82.91;102158.41;5053659;28;20021;-35
2021/09/23 02:45:24;;;;;;;33.27;22.53;;;;;;;10.73;83.40;102161.97;5051543;28;20480;-35
2021/09/23 02:47:49;;;;;;;36.97;23.30;;;;;;;10.62;83.56;102133.59;5052938;28;20424;-35
2021/09/23 02:50:14;;;;;;;32.43;23.43;;;;;;;10.65;81.88;102144.03;5052790;28;20025;-35
2021/09/23 02:52:40;;;;;;;32.50;22.90;;;;;;;10.69;83.12;102136.38;5053844;28;20434;-35
2021/09/23 02:55:06;;;;;;;31.43;21.67;;;;;;;10.73;82.50;102124.91;5052753;28;20392;-35
2021/09/23 02:57:31;;;;;;;29.88;22.13;;;;;;;10.73;83.08;102116.81;5052642;28;20017;-35
2021/09/23 02:59:56;;;;;;;34.07;22.97;;;;;;;10.76;83.77;102104.75;5052632;28;20040;-35
2021/09/23 03:02:22;;;;;;;32.70;22.63;;;;;;;10.67;83.25;102105.97;5053175;28;20259;-35
2021/09/23 03:04:47;;;;;;;31.23;21.30;;;;;;;10.58;81.88;102108.81;5052670;28;20123;-35
2021/09/23 03:07:12;;;;;;;30.33;22.77;;;;;;;10.63;83.95;102108.22;5052457;28;20040;-35
2021/09/23 03:09:38;;;;;;;31.40;21.93;;;;;;;10.58;83.01;102089.88;5051964;28;20021;-35
2021/09/23 03:12:03;;;;;;;30.70;22.37;;;;;;;10.60;84.19;102105.09;5052575;28;20031;-35
2021/09/23 03:14:29;;;;;;;34.65;21.67;;;;;;;10.72;83.87;102095.38;5052930;28;20353;-35
2021/09/23 03:16:54;;;;;;;28.70;20.40;;;;;;;10.65;83.44;102094.53;5052729;28;20029;-35
2021/09/23 03:19:20;;;;;;;30.17;22.25;;;;;;;10.70;84.10;102092.03;5052587;28;20098;-35
2021/09/23 03:21:45;;;;;;;34.95;20.92;;;;;;;10.68;83.84;102088.69;5052750;28;20017;-35
2021/09/23 03:24:11;;;;;;;28.63;21.15;;;;;;;10.64;83.71;102072.03;5052184;28;20368;-35
2021/09/23 03:26:39;;;;;;;27.95;21.50;;;;;;;10.77;83.82;102082.06;5053016;28;20035;-35
2021/09/23 03:29:06;;;;;;;31.38;20.67;;;;;;;10.65;82.19;102078.28;5052383;28;20104;-35
2021/09/23 03:31:33;;;;;;;30.25;20.95;;;;;;;10.64;83.58;102077.47;5052424;28;20067;-35
2021/09/23 03:33:58;;;;;;;30.85;20.88;;;;;;;10.62;83.23;102074.09;5052311;28;20032;-35
2021/09/23 03:36:24;;;;;;;29.05;20.95;;;;;;;10.57;83.33;102069.28;5052477;28;20029;-35
2021/09/23 03:38:52;;;;;;;32.03;22.02;;;;;;;10.61;84.09;102082.44;5052008;28;20497;-35
2021/09/23 03:41:18;;;;;;;36.58;22.45;;;;;;;10.58;84.20;102073.66;5054695;28;20025;-35
2021/09/23 03:43:43;;;;;;;29.70;21.48;;;;;;;10.45;84.15;102051.97;5055595;28;20032;-35
2021/09/23 03:46:09;;;;;;;31.37;20.97;;;;;;;10.55;83.85;102065.13;5056336;28;20059;-35
2021/09/23 03:48:34;;;;;;;26.83;19.43;;;;;;;10.44;81.90;102069.25;5055542;28;20134;-35
2021/09/23 03:50:59;;;;;;;27.23;20.37;;;;;;;10.54;83.85;102064.31;5055537;28;20020;-35
2021/09/23 03:53:25;;;;;;;35.00;22.50;;;;;;;10.44;84.25;102063.84;5055463;28;20433;-35
2021/09/23 03:55:51;;;;;;;29.55;20.50;;;;;;;10.36;82.93;102058.59;5055713;28;20055;-35
2021/09/23 03:58:17;;;;;;;29.63;22.45;;;;;;;10.40;85.00;102059.88;5055221;28;20025;-35
2021/09/23 04:00:43;;;;;;;26.90;19.52;;;;;;;10.36;83.92;102053.19;5055929;28;20441;-35
2021/09/23 04:03:08;;;;;;;30.52;21.17;;;;;;;10.35;85.03;102058.81;5055546;28;20025;-35
2021/09/23 04:05:33;;;;;;;29.57;21.47;;;;;;;10.52;84.08;102073.63;5055800;28;20445;-35
2021/09/23 04:08:00;;;;;;;32.33;22.90;;;;;;;10.54;83.98;102077.81;5055590;28;20430;-35
2021/09/23 04:10:26;;;;;;;30.65;22.17;;;;;;;10.37;83.07;102072.94;5055251;28;20025;-35
2021/09/23 04:12:55;;;;;;;;;;;;;;;10.57;82.90;102073.88;5055456;28;20035;-35
2021/09/23 04:15:22;;;;;;;32.15;22.20;;;;;;;10.37;83.67;102068.38;5055191;28;19934;-35
2021/09/23 04:17:48;;;;;;;29.17;21.92;;;;;;;10.28;83.93;102069.56;5055286;28;20044;-35
2021/09/23 04:20:13;;;;;;;25.73;20.23;;;;;;;10.29;84.28;102073.91;5055483;28;20079;-35
2021/09/23 04:22:38;;;;;;;29.47;21.27;;;;;;;10.20;84.07;102066.97;5055398;28;20075;-35
2021/09/23 04:25:04;;;;;;;28.33;20.43;;;;;;;10.10;82.74;102080.00;5054872;28;20024;-35
2021/09/23 04:27:29;;;;;;;29.08;21.70;;;;;;;10.15;83.85;102093.75;5055003;28;20032;-35
2021/09/23 04:29:55;;;;;;;31.30;22.38;;;;;;;10.24;85.12;102096.16;5054994;28;20071;-35
2021/09/23 04:32:20;;;;;;;29.17;21.13;;;;;;;10.24;84.27;102092.59;5055093;28;20029;-35
2021/09/23 04:34:46;;;;;;;30.23;22.13;;;;;;;10.28;85.51;102089.31;5054989;28;20017;-35
2021/09/23 04:37:11;;;;;;;33.10;23.10;;;;;;;10.34;85.90;102090.38;5055212;28;20116;-35
2021/09/23 04:39:37;;;;;;;29.53;22.57;;;;;;;10.36;85.73;102095.63;5054877;28;20484;-34
2021/09/23 04:42:02;;;;;;;33.83;24.65;;;;;;;10.43;86.19;102091.91;5055079;28;20089;-35
2021/09/23 04:44:28;;;;;;;35.70;24.20;;;;;;;10.47;85.62;102087.75;5055055;28;20476;-35
2021/09/23 04:46:53;;;;;;;33.67;24.33;;;;;;;10.48;85.09;102086.72;5054635;28;20032;-35
2021/09/23 04:49:19;;;;;;;35.92;24.08;;;;;;;10.56;85.53;102097.38;5054651;28;20024;-35
2021/09/23 04:51:44;;;;;;;30.87;23.77;;;;;;;10.62;86.10;102093.03;5054310;28;20373;-35
2021/09/23 04:54:10;;;;;;;31.97;23.63;;;;;;;10.68;85.56;102091.38;5054824;28;20025;-35
2021/09/23 04:56:35;;;;;;;35.50;23.15;;;;;;;10.65;84.95;102089.09;5054418;28;20021;-35
2021/09/23 04:59:02;;;;;;;34.70;24.70;;;;;;;10.69;85.23;102080.38;5054334;28;20126;-35
2021/09/23 05:01:28;;;;;;;34.13;24.35;;;;;;;10.75;85.51;102068.75;5054066;28;20523;-35
2021/09/23 05:03:54;;;;;;;36.53;23.42;;;;;;;10.75;85.42;102057.09;5054284;28;20029;-35
2021/09/23 05:06:19;;;;;;;29.75;23.02;;;;;;;10.78;85.10;102053.97;5054044;28;20098;-35
2021/09/23 05:08:44;;;;;;;34.63;24.23;;;;;;;10.75;85.31;102047.09;5053966;28;20071;-35
2021/09/23 05:11:10;;;;;;;34.73;24.67;;;;;;;10.77;85.19;102044.19;5054881;28;20025;-35
2021/09/23 05:13:35;;;;;;;32.70;23.83;;;;;;;10.76;84.78;102032.53;5053778;28;20128;-35
2021/09/23 05:16:00;;;;;;;33.03;23.20;;;;;;;10.74;85.55;102034.63;5054367;28;20519;-35
2021/09/23 05:18:26;;;;;;;29.80;22.87;;;;;;;10.70;85.56;102032.53;5054454;28;20053;-35
2021/09/23 05:20:51;;;;;;;33.83;22.57;;;;;;;10.72;85.61;102031.28;5054316;28;20028;-35
2021/09/23 05:23:17;;;;;;;29.80;21.77;;;;;;;10.60;85.77;102002.31;5053692;28;20021;-35
2021/09/23 05:25:42;;;;;;;31.23;22.90;;;;;;;10.75;85.93;102009.22;5054268;28;20263;-35
2021/09/23 05:28:07;;;;;;;32.40;22.53;;;;;;;10.71;85.31;101999.00;5054085;28;20032;-35
2021/09/23 05:30:33;;;;;;;31.57;22.87;;;;;;;10.72;85.30;101995.28;5054027;28;20021;-35
2021/09/23 05:32:58;;;;;;;31.50;23.70;;;;;;;10.80;85.52;101998.63;5054127;28;20112;-35
2021/09/23 05:35:24;;;;;;;32.25;22.65;;;;;;;10.74;85.68;101991.34;5054168;28;20049;-35
2021/09/23 05:37:49;;;;;;;31.57;23.10;;;;;;;10.82;85.70;102004.66;5054408;28;20507;-35
2021/09/23 05:40:15;;;;;;;33.17;23.00;;;;;;;10.83;85.63;101989.25;5053633;28;20107;-35
2021/09/23 05:42:40;;;;;;;33.85;22.35;;;;;;;10.83;84.99;101987.41;5054115;28;20024;-35
2021/09/23 05:45:09;;;;;;;34.65;23.48;;;;;;;10.91;85.68;101996.34;5053529;28;20041;-35
2021/09/23 05:47:35;;;;;;;30.13;22.67;;;;;;;10.79;85.48;101991.56;5053381;28;20029;-35
2021/09/23 05:50:02;;;;;;;30.00;22.27;;;;;;;10.91;85.67;102008.00;5053860;28;20327;-35
2021/09/23 05:52:27;;;;;;;33.00;21.65;;;;;;;10.99;85.47;102001.59;5053023;28;20036;-35
2021/09/23 05:54:52;;;;;;;32.43;22.83;;;;;;;11.02;85.37;101993.88;5053361;28;20460;-35
2021/09/23 05:57:23;;;;;;;35.87;23.90;;;;;;;11.06;85.03;101991.59;5053471;28;20017;-35
2021/09/23 05:59:49;;;;;;;31.52;23.13;;;;;;;11.01;84.99;101975.13;5053132;28;20028;-35
2021/09/23 06:02:15;;;;;;;31.60;23.58;;;;;;;11.12;84.87;101987.22;5052943;28;20429;-35
2021/09/23 06:04:41;;;;;;;31.10;22.87;;;;;;;11.12;85.35;101977.22;5052619;28;20029;-35
2021/09/23 06:07:06;;;;;;;32.08;23.67;;;;;;;11.12;84.94;101979.94;5053330;28;20025;-35
2021/09/23 06:09:32;;;;;;;27.95;22.17;;;;;;;11.09;85.32;101986.59;5052820;28;20113;-35
2021/09/23 06:11:57;;;;;;;29.17;21.17;;;;;;;11.18;85.19;101989.13;5053894;28;20329;-35
2021/09/23 06:14:22;;;;;;;35.33;23.87;;;;;;;11.19;85.76;101986.19;5052779;28;20051;-35
2021/09/23 06:16:48;;;;;;;41.10;24.30;;;;;;;11.03;85.12;101952.25;5052968;28;20017;-35
2021/09/23 06:19:13;;;;;;;34.00;23.33;;;;;;;11.22;85.23;101972.22;5053442;28;20029;-35
2021/09/23 06:21:40;;;;;;;33.23;23.60;;;;;;;11.21;85.48;101959.75;5053240;28;20025;-35
2021/09/23 06:24:06;;;;;;;30.67;23.13;;;;;;;11.29;85.31;101973.09;5052510;28;20503;-35
2021/09/23 06:26:32;;;;;;;30.75;22.60;;;;;;;11.31;85.15;101973.69;5052972;28;20025;-35
2021/09/23 06:28:58;;;;;;;35.42;21.92;;;;;;;11.18;85.36;101952.06;5052861;28;20025;-35
2021/09/23 06:31:23;;;;;;;34.28;22.80;;;;;;;11.29;85.41;101964.13;5053014;28;20092;-35
2021/09/23 06:33:48;;;;;;;33.13;23.52;;;;;;;11.41;85.65;101972.44;5052837;28;20107;-35
2021/09/23 06:36:14;;;;;;;35.63;24.73;;;;;;;11.47;85.81;101968.91;5052868;28;20349;-35
2021/09/23 06:38:39;;;;;;;32.43;24.33;;;;;;;11.52;85.70;101972.66;5052692;28;20056;-35
2021/09/23 06:41:05;;;;;;;33.27;25.13;;;;;;;11.56;85.93;101984.72;5052541;28;20021;-35
2021/09/23 06:43:30;;;;;;;34.38;24.27;;;;;;;11.60;85.79;101985.97;5053357;28;20017;-35
2021/09/23 06:45:56;;;;;;;36.35;25.70;;;;;;;11.64;86.24;101980.16;5053006;28;20394;-35
2021/09/23 06:48:21;;;;;;;36.50;25.60;;;;;;;11.62;85.93;101966.81;5052774;28;20120;-35
2021/09/23 06:50:47;;;;;;;32.00;24.43;;;;;;;11.73;86.26;101973.47;5052476;28;20029;-35
2021/09/23 06:53:12;;;;;;;38.57;26.20;;;;;;;11.74;86.42;101969.72;5052368;28;20053;-35
2021/09/23 06:55:37;;;;;;;37.33;26.55;;;;;;;11.87;86.39;101977.84;5053354;28;20681;-35
2021/09/23 06:58:03;;;;;;;31.60;26.07;;;;;;;11.94;86.75;101980.53;5052553;28;20092;-35
2021/09/23 07:00:28;;;;;;;39.33;27.63;;;;;;;11.92;87.27;101971.78;5052534;28;20021;-35
2021/09/23 07:02:53;;;;;;;39.63;27.73;;;;;;;11.97;87.30;101964.69;5052744;28;20033;-35
2021/09/23 07:05:19;;;;;;;39.03;27.80;;;;;;;12.10;87.21;101974.63;5052483;28;20025;-35
2021/09/23 07:07:44;;;;;;;42.30;28.70;;;;;;;12.19;87.57;101980.66;5051888;28;20048;-35
2021/09/23 07:10:10;;;;;;;42.97;31.17;;;;;;;12.30;88.54;101974.59;5052471;28;20028;-35
2021/09/23 07:12:36;;;;;;;45.13;30.00;;;;;;;12.36;88.25;101976.44;5052434;28;20471;-35
2021/09/23 07:15:03;;;;;;;42.78;30.20;;;;;;;12.39;88.69;101976.00;5052483;28;20046;-35
2021/09/23 07:17:28;;;;;;;41.03;31.00;;;;;;;12.53;88.92;101991.16;5056116;28;20051;-35
2021/09/23 07:19:54;;;;;;;44.07;30.93;;;;;;;12.64;89.28;101986.97;5055914;28;20021;-35
2021/09/23 07:22:19;;;;;;;46.15;31.92;;;;;;;12.74;89.43;101992.75;5055925;28;20252;-35
2021/09/23 07:24:45;;;;;;;47.30;32.90;;;;;;;12.74;89.75;101971.03;5056174;28;20029;-35
2021/09/23 07:27:10;;;;;;;44.10;30.75;;;;;;;12.86;89.31;101980.13;5055846;28;20260;-35
2021/09/23 07:29:36;;;;;;;39.30;30.80;;;;;;;12.91;89.20;101976.75;5055865;28;20028;-35
2021/09/23 07:32:02;;;;;;;50.15;32.42;;;;;;;12.92;89.16;101958.59;5056298;28;20021;-35
2021/09/23 07:34:28;;;;;;;47.40;32.28;;;;;;;12.93;89.26;101958.34;5055906;28;20017;-35
2021/09/23 07:36:53;;;;;;;44.07;30.27;;;;;;;12.99;89.17;101953.97;5055815;28;20108;-35
2021/09/23 07:39:19;;;;;;;41.35;29.75;;;;;;;12.96;89.02;101928.06;5055717;28;20024;-35
2021/09/23 07:41:45;;;;;;;40.40;30.10;;;;;;;13.10;89.12;101936.94;5054551;28;20039;-35
2021/09/23 07:44:11;;;;;;;;;;;;;;;13.17;88.39;101948.56;5056601;28;20025;-35
2021/09/23 07:46:37;;;;;;;41.40;31.00;;;;;;;13.20;89.22;101941.88;5056229;28;19931;-35
2021/09/23 07:49:04;;;;;;;45.20;33.78;;;;;;;13.18;89.12;101930.41;5055677;28;20017;-35
2021/09/23 07:51:29;;;;;;;41.13;30.08;;;;;;;13.33;88.94;101939.09;5055705;28;20025;-35
2021/09/23 07:53:55;;;;;;;44.37;30.83;;;;;;;13.44;88.57;101943.78;5055327;28;20048;-35
2021/09/23 07:56:20;;;;;;;44.20;31.98;;;;;;;13.55;88.33;101945.75;5055589;28;20024;-35
2021/09/23 07:58:45;;;;;;;45.72;32.50;;;;;;;13.61;88.06;101941.31;5055515;28;20047;-35
2021/09/23 08:01:11;;;;;;;45.07;31.43;;;;;;;13.70;88.14;101928.25;5055247;28;20029;-35
2021/09/23 08:03:36;;;;;;;42.65;30.92;;;;;;;13.79;88.07;101919.59;5056055;28;20436;-35
2021/09/23 08:06:02;;;;;;;43.22;30.08;;;;;;;13.86;87.73;101930.41;5055328;28;20032;-35
2021/09/23 08:08:27;;;;;;;41.38;30.50;;;;;;;13.97;87.83;101929.66;5055301;28;20029;-35
2021/09/23 08:10:53;;;;;;;42.63;30.05;;;;;;;14.07;86.89;101912.78;5055492;28;20027;-35
2021/09/23 08:13:19;;;;;;;42.60;28.77;;;;;;;14.18;87.13;101912.84;5055455;28;20101;-35
2021/09/23 08:15:44;;;;;;;38.22;28.85;;;;;;;14.28;86.56;101900.59;5055013;28;20416;-35
2021/09/23 08:18:12;;;;;;;41.25;28.67;;;;;;;14.34;86.43;101902.38;5055212;28;20080;-35
2021/09/23 08:20:38;;;;;;;41.60;29.10;;;;;;;14.37;86.02;101889.16;5055046;28;20021;-35
2021/09/23 08:23:04;;;;;;;37.63;28.30;;;;;;;14.53;85.82;101893.13;5055709;28;20341;-35
2021/09/23 08:25:30;;;;;;;41.00;28.92;;;;;;;14.59;86.15;101894.09;5054981;28;20028;-35
2021/09/23 08:27:55;;;;;;;36.90;28.42;;;;;;;14.61;86.05;101887.38;5054541;28;20044;-35
2021/09/23 08:30:21;;;;;;;35.73;27.43;;;;;;;14.79;85.71;101891.09;5054893;28;20021;-35
2021/09/23 08:32:46;;;;;;;36.28;28.00;;;;;;;14.87;85.02;101893.47;5055049;28;20286;-35
2021/09/23 08:35:12;;;;;;;35.03;27.23;;;;;;;15.05;85.55;101896.09;5054886;28;20096;-35
2021/09/23 08:37:38;;;;;;;35.17;27.38;;;;;;;15.11;84.77;101886.97;5055019;28;20056;-35
2021/09/23 08:40:10;;;;;;;34.95;27.60;;;;;;;15.07;85.07;101872.16;5054756;28;20461;-35
2021/09/23 08:42:37;;;;;;;38.08;28.88;;;;;;;15.12;84.56;101877.72;5055054;28;20454;-35
2021/09/23 08:45:03;;;;;;;35.40;25.25;;;;;;;15.19;84.96;101875.75;5054308;28;20028;-35
2021/09/23 08:47:29;;;;;;;;;;;;;;;15.33;85.17;101878.22;5055344;28;20454;-35
2021/09/23 08:49:54;;;;;;;38.60;27.15;;;;;;;15.39;84.60;101882.72;5054715;28;19948;-35
2021/09/23 08:52:23;;;;;;;37.17;25.43;;;;;;;15.48;84.28;101875.84;5054691;28;20406;-35
2021/09/23 08:54:48;;;;;;;32.72;24.65;;;;;;;15.51;83.48;101880.81;5054393;28;20380;-35
2021/09/23 08:57:14;;;;;;;34.93;24.27;;;;;;;15.50;83.68;101870.97;5054575;28;20020;-35
2021/09/23 08:59:40;;;;;;;34.33;24.02;;;;;;;15.53;83.52;101861.50;5054050;28;20275;-35
2021/09/23 09:02:20;;;;;;;28.63;22.17;;;;;;;15.50;83.06;101842.91;5054833;28;20104;-35
2021/09/23 09:04:50;;;;;;;35.63;22.83;;;;;;;15.87;82.38;101882.44;5054722;28;20074;-35
2021/09/23 09:07:25;;;;;;;30.80;21.58;;;;;;;15.96;81.11;101886.47;5054465;28;20109;-35
2021/09/23 09:09:50;;;;;;;25.85;20.27;;;;;;;16.13;81.17;101889.25;5054152;28;20466;-35
2021/09/23 09:12:16;;;;;;;27.05;20.27;;;;;;;16.33;79.97;101880.63;5054120;28;20028;-35
2021/09/23 09:14:42;;;;;;;;;;;;;;;16.49;80.53;101887.19;5054491;28;20032;-35
2021/09/23 09:17:08;;;;;;;23.42;17.52;;;;;;;16.55;78.42;101878.03;5054325;28;19916;-35
2021/09/23 09:19:59;;;;;;;21.27;16.13;;;;;;;16.77;78.11;101899.19;5054260;28;20464;-35
2021/09/23 09:22:27;;;;;;;25.65;16.67;;;;;;;16.70;76.55;101897.41;5052459;28;20090;-35
2021/09/23 09:24:55;;;;;;;23.92;16.85;;;;;;;16.79;76.61;101900.59;5053858;28;20031;-35
2021/09/23 09:27:37;;;;;;;21.33;16.52;;;;;;;16.90;76.16;101887.94;5053881;28;20056;-35
2021/09/23 09:30:11;;;;;;;23.15;16.95;;;;;;;16.91;75.33;101889.59;5053692;28;20021;-35
2021/09/23 09:32:42;;;;;;;20.73;16.10;;;;;;;16.95;74.98;101883.38;5053676;28;20021;-35
2021/09/23 09:35:11;;;;;;;24.90;17.25;;;;;;;17.08;74.84;101887.69;5053721;28;20029;-35
2021/09/23 09:37:39;;;;;;;22.83;16.48;;;;;;;17.24;74.84;101892.31;5053593;28;20031;-35
2021/09/23 09:40:05;;;;;;;23.45;16.05;;;;;;;17.29;73.42;101888.84;5053339;28;20032;-35
2021/09/23 09:42:32;;;;;;;25.50;17.00;;;;;;;17.30;73.37;101892.41;5053849;28;20021;-35
2021/09/23 09:44:58;;;;;;;21.08;16.50;;;;;;;17.27;73.35;101871.84;5053052;28;20457;-35
2021/09/23 09:47:36;;;;;;;22.48;16.17;;;;;;;17.27;73.55;101871.00;5052278;28;20054;-35
2021/09/23 09:50:15;;;;;;;21.00;16.70;;;;;;;17.31;73.92;101880.38;5052066;28;20112;-35
2021/09/23 09:52:47;;;;;;;20.20;15.45;;;;;;;17.27;73.65;101881.94;5053467;28;20373;-35
2021/09/23 09:55:13;;;;;;;22.40;16.40;;;;;;;17.23;73.78;101866.06;5053403;28;20029;-35
2021/09/23 09:57:49;;;;;;;19.33;15.32;;;;;;;17.36;73.22;101874.97;5053259;28;20468;-35
2021/09/23 10:00:16;;;;;;;20.85;15.85;;;;;;;17.41;73.80;101875.06;5053414;28;20113;-35
2021/09/23 10:02:43;;;;;;;21.40;15.30;;;;;;;17.35;72.55;101876.06;5053775;28;20123;-35
2021/09/23 10:05:11;;;;;;;22.70;16.13;;;;;;;17.30;73.20;101851.38;5053180;28;20334;-35
2021/09/23 10:07:38;;;;;;;23.02;15.55;;;;;;;17.45;72.88;101870.75;5052873;28;20075;-35
2021/09/23 10:10:04;;;;;;;19.15;17.05;;;;;;;17.43;72.56;101867.44;5053317;28;20024;-35
2021/09/23 10:12:31;;;;;;;25.70;17.25;;;;;;;17.63;72.72;101861.44;5053094;28;20449;-35
2021/09/23 10:14:58;;;;;;;22.33;16.27;;;;;;;17.73;72.25;101864.31;5053156;28;20051;-35
2021/09/23 10:17:29;;;;;;;30.48;17.65;;;;;;;17.67;72.42;101862.56;5053020;28;20437;-35
2021/09/23 10:19:56;;;;;;;26.10;17.52;;;;;;;17.62;72.82;101857.88;5052873;28;20040;-35
2021/09/23 10:22:21;;;;;;;21.35;16.08;;;;;;;17.51;72.89;101850.59;5053669;28;20032;-35
2021/09/23 10:24:49;;;;;;;21.45;16.02;;;;;;;17.56;72.42;101845.19;5052205;28;20524;-35
2021/09/23 10:30:00;;;;;;;15.32;11.10;;;;;;;17.67;71.14;101847.00;5052906;28;20453;-35
2021/09/23 10:32:26;;;;;;;14.20;10.10;;;;;;;17.66;70.88;101852.69;5053026;28;20101;-35
2021/09/23 10:34:52;;;;;;;12.75;8.43;;;;;;;17.66;70.28;101849.97;5052823;28;20396;-35
2021/09/23 10:37:18;;;;;;;;;;;;;;;17.73;70.10;101843.25;5053534;28;20021;-35
2021/09/23 10:39:45;;;;;;;9.90;7.43;;;;;;;17.64;69.96;101855.69;5052459;28;20419;-35
2021/09/23 10:42:20;;;;;;;11.27;8.30;;;;;;;17.88;69.61;101852.75;5052826;28;20464;-35
2021/09/23 10:44:47;;;;;;;11.55;7.72;;;;;;;17.92;69.34;101843.75;5052812;28;20480;-35
2021/09/23 10:47:12;;;;;;;12.20;7.88;;;;;;;17.94;69.29;101852.53;5053080;28;20385;-35
2021/09/23 10:49:37;;;;;;;;;;;;;;;18.09;70.42;101854.63;5054401;28;20063;-35
2021/09/23 10:52:03;;;;;;;13.30;6.90;;;;;;;18.40;68.96;101838.53;5057613;28;19912;-35
2021/09/23 10:54:29;;;;;;;;;;;;;;;18.71;69.39;101847.88;5056965;28;20357;-35
2021/09/23 10:56:54;;;;;;;9.45;6.95;;;;;;;18.93;66.02;101858.72;5056406;28;19912;-35
2021/09/23 10:59:20;;;;;;;;;;;;;;;19.13;66.08;101847.94;5055730;28;20449;-35
2021/09/23 11:01:45;;;;;;;10.88;6.50;;;;;;;19.18;64.34;101841.63;5056391;28;20305;-36
2021/09/23 11:04:11;;;;;;;;;;;;;;;19.37;66.05;101839.28;5057152;28;20028;-35
2021/09/23 11:06:39;;;;;;;10.25;6.32;;;;;;;19.34;63.07;101850.78;5057082;28;19904;-35
2021/09/23 11:09:18;;;;;;;9.60;5.65;;;;;;;19.39;64.32;101850.81;5057194;28;20024;-35
2021/09/23 11:11:52;;;;;;;9.40;5.82;;;;;;;19.35;62.39;101842.28;5056682;28;20310;-35